createdAt,value
2022-11-25T00:01:16.470Z,15.60
2022-11-25T00:03:45.026Z,15.25
2022-11-25T00:06:14.882Z,14.32
2022-11-25T00:08:43.629Z,14.77
2022-11-25T00:11:12.404Z,16.15
2022-11-25T00:13:40.411Z,16.37
2022-11-25T00:16:12.725Z,15.98
2022-11-25T00:18:40.930Z,16.25
2022-11-25T00:21:13.532Z,18.00
2022-11-25T00:23:41.155Z,15.45
2022-11-25T00:26:13.178Z,16.30
2022-11-25T00:28:42.362Z,17.15
2022-11-25T00:31:22.864Z,17.33
2022-11-25T00:33:51.083Z,18.65
2022-11-25T00:36:28.640Z,17.10
2022-11-25T00:39:05.681Z,16.02
2022-11-25T00:41:51.672Z,17.67
2022-11-25T00:44:36.430Z,16.87
2022-11-25T00:47:19.094Z,16.55
2022-11-25T00:49:52.254Z,16.67
2022-11-25T00:52:21.645Z,15.68
2022-11-25T00:54:50.040Z,16.92
2022-11-25T00:57:19.146Z,17.33
2022-11-25T00:59:46.790Z,17.08
2022-11-25T01:02:15.753Z,17.12
2022-11-25T01:04:44.953Z,16.95
2022-11-25T01:07:15.642Z,17.80
2022-11-25T01:09:43.363Z,17.98
2022-11-25T01:12:10.716Z,17.10
2022-11-25T01:14:38.259Z,17.60
2022-11-25T01:17:06.048Z,17.35
2022-11-25T01:19:33.492Z,16.45
2022-11-25T01:22:00.818Z,17.12
2022-11-25T01:24:28.451Z,16.77
2022-11-25T01:26:56.080Z,16.65
2022-11-25T01:29:23.429Z,16.67
2022-11-25T01:31:57.293Z,18.00
2022-11-25T01:34:26.593Z,16.65
2022-11-25T01:36:57.731Z,17.02
2022-11-25T01:39:31.948Z,16.65
2022-11-25T01:42:01.566Z,17.35
2022-11-25T01:44:30.737Z,16.15
2022-11-25T01:47:19.154Z,16.60
2022-11-25T01:49:54.973Z,17.50
2022-11-25T01:52:29.720Z,17.08
2022-11-25T01:55:02.070Z,18.65
2022-11-25T01:57:38.091Z,18.70
2022-11-25T02:00:07.835Z,17.35
2022-11-25T02:02:45.552Z,19.27
2022-11-25T02:05:16.816Z,18.10
2022-11-25T02:07:46.411Z,18.25
2022-11-25T02:10:21.723Z,19.58
2022-11-25T02:12:49.345Z,19.42
2022-11-25T02:15:17.159Z,18.52
2022-11-25T02:17:44.841Z,17.67
2022-11-25T02:20:15.286Z,17.23
2022-11-25T02:23:07.051Z,18.23
2022-11-25T02:25:39.300Z,17.65
2022-11-25T02:28:12.558Z,17.83
2022-11-25T02:30:40.663Z,18.87
2022-11-25T02:33:08.062Z,18.33
2022-11-25T02:35:38.390Z,17.08
2022-11-25T02:38:12.567Z,17.35
2022-11-25T02:40:53.650Z,17.35
2022-11-25T02:43:21.417Z,17.87
2022-11-25T02:46:01.934Z,17.85
2022-11-25T02:48:53.192Z,17.83
2022-11-25T02:51:21.034Z,17.12
2022-11-25T02:53:48.779Z,18.35
2022-11-25T02:56:17.343Z,18.58
2022-11-25T02:58:44.811Z,17.65
2022-11-25T03:01:12.772Z,18.95
2022-11-25T03:03:40.359Z,18.48
2022-11-25T03:06:08.552Z,18.75
2022-11-25T03:08:38.053Z,19.02
2022-11-25T03:11:06.428Z,18.62
2022-11-25T03:13:33.963Z,18.98
2022-11-25T03:16:01.663Z,19.12
2022-11-25T03:18:29.074Z,18.52
2022-11-25T03:20:56.909Z,17.25
2022-11-25T03:23:25.073Z,18.55
2022-11-25T03:25:54.618Z,18.12
2022-11-25T03:28:22.151Z,18.42
2022-11-25T03:30:50.310Z,19.52
2022-11-25T03:33:17.665Z,18.87
2022-11-25T03:35:45.635Z,18.35
2022-11-25T03:38:13.221Z,19.45
2022-11-25T03:40:41.128Z,19.62
2022-11-25T03:43:09.225Z,20.50
2022-11-25T03:45:37.281Z,20.15
2022-11-25T03:48:05.116Z,19.40
2022-11-25T03:50:32.433Z,18.83
2022-11-25T03:53:00.079Z,18.83
2022-11-25T03:55:27.496Z,18.58
2022-11-25T03:57:55.413Z,18.02
2022-11-25T04:00:24.929Z,18.12
2022-11-25T04:02:53.519Z,19.15
2022-11-25T04:05:20.938Z,18.55
2022-11-25T04:07:52.202Z,17.60
2022-11-25T04:10:22.639Z,18.87
2022-11-25T04:12:50.199Z,17.23
2022-11-25T04:15:18.422Z,17.60
2022-11-25T04:17:46.428Z,17.35
2022-11-25T04:20:14.592Z,18.15
2022-11-25T04:22:43.119Z,18.35
2022-11-25T04:25:11.154Z,19.27
2022-11-25T04:27:38.525Z,19.40
2022-11-25T04:30:07.426Z,19.10
2022-11-25T04:32:37.584Z,20.35
2022-11-25T04:35:06.057Z,21.15
2022-11-25T04:37:33.831Z,21.00
2022-11-25T04:40:01.472Z,21.17
2022-11-25T04:42:32.243Z,21.12
2022-11-25T04:45:22.096Z,21.02
2022-11-25T04:47:48.765Z,19.95
2022-11-25T04:50:19.164Z,20.20
2022-11-25T04:52:47.646Z,21.55
2022-11-25T04:55:15.502Z,22.27
2022-11-25T04:57:43.209Z,20.70
2022-11-25T05:00:11.632Z,20.55
2022-11-25T05:02:39.421Z,21.62
2022-11-25T05:05:07.876Z,19.87
2022-11-25T05:07:35.697Z,20.75
2022-11-25T05:10:03.550Z,20.70
2022-11-25T05:12:31.378Z,22.70
2022-11-25T05:14:59.268Z,22.65
2022-11-25T05:17:29.280Z,20.90
2022-11-25T05:19:56.996Z,21.55
2022-11-25T05:22:27.492Z,22.42
2022-11-25T05:24:55.121Z,20.75
2022-11-25T05:27:23.878Z,20.88
2022-11-25T05:29:56.005Z,21.23
2022-11-25T05:32:24.200Z,21.67
2022-11-25T05:34:51.690Z,19.83
2022-11-25T05:37:24.164Z,19.08
2022-11-25T05:39:53.431Z,19.80
2022-11-25T05:42:21.538Z,21.00
2022-11-25T05:44:48.923Z,19.65
2022-11-25T05:47:16.606Z,20.60
2022-11-25T05:49:44.876Z,20.37
2022-11-25T05:52:12.571Z,22.00
2022-11-25T05:54:40.751Z,20.80
2022-11-25T05:57:08.135Z,20.48
2022-11-25T05:59:39.279Z,20.42
2022-11-25T06:02:07.187Z,20.05
2022-11-25T06:04:35.178Z,19.42
2022-11-25T06:07:03.201Z,18.80
2022-11-25T06:09:30.711Z,18.60
2022-11-25T06:11:58.486Z,19.33
2022-11-25T06:14:25.942Z,18.25
2022-11-25T06:16:53.545Z,19.17
2022-11-25T06:19:22.064Z,20.27
2022-11-25T06:21:49.690Z,20.70
2022-11-25T06:24:17.452Z,19.67
2022-11-25T06:26:45.204Z,19.58
2022-11-25T06:29:12.530Z,3.90
2022-11-25T06:31:40.782Z,19.23
2022-11-25T06:34:09.766Z,20.10
2022-11-25T06:36:39.976Z,20.20
2022-11-25T06:39:07.311Z,21.50
2022-11-25T06:41:34.891Z,21.00
2022-11-25T06:44:02.247Z,21.73
2022-11-25T06:46:29.699Z,22.85
2022-11-25T06:49:01.400Z,21.45
2022-11-25T06:51:29.003Z,21.65
2022-11-25T06:53:56.693Z,22.85
2022-11-25T06:56:26.429Z,22.15
2022-11-25T06:58:54.801Z,21.65
2022-11-25T07:01:27.860Z,1.60
2022-11-25T07:03:59.241Z,22.95
2022-11-25T07:06:27.388Z,21.83
2022-11-25T07:08:54.999Z,21.95
2022-11-25T07:11:40.717Z,21.73
2022-11-25T07:14:15.059Z,21.02
2022-11-25T07:16:44.225Z,21.30
2022-11-25T07:19:13.761Z,23.75
2022-11-25T07:21:44.461Z,25.40
2022-11-25T07:24:14.063Z,29.92
2022-11-25T07:26:42.847Z,27.23
2022-11-25T07:32:02.422Z,21.52
2022-11-25T07:34:31.892Z,21.08
2022-11-25T07:36:59.224Z,20.48
2022-11-25T07:39:26.808Z,20.40
2022-11-25T07:41:54.288Z,20.25
2022-11-25T07:44:21.696Z,21.87
2022-11-25T07:46:50.453Z,19.65
2022-11-25T07:49:20.631Z,20.08
2022-11-25T07:51:55.855Z,21.12
2022-11-25T07:54:24.085Z,19.87
2022-11-25T07:56:51.710Z,19.50
2022-11-25T07:59:21.572Z,18.33
2022-11-25T08:01:51.032Z,18.00
2022-11-25T08:04:20.745Z,18.77
2022-11-25T08:06:50.820Z,17.85
2022-11-25T08:09:20.761Z,18.52
2022-11-25T08:11:49.255Z,17.80
2022-11-25T08:14:16.816Z,16.45
2022-11-25T08:16:44.551Z,17.52
2022-11-25T08:19:14.779Z,15.98
2022-11-25T08:21:42.235Z,16.05
2022-11-25T08:24:20.660Z,15.73
2022-11-25T08:26:49.062Z,15.45
2022-11-25T08:29:17.941Z,15.13
2022-11-25T08:31:45.508Z,13.18
2022-11-25T08:34:19.936Z,13.70
2022-11-25T08:36:48.869Z,13.43
2022-11-25T08:42:07.752Z,13.40
2022-11-25T08:44:35.630Z,13.93
2022-11-25T08:47:03.108Z,12.57
2022-11-25T08:49:32.771Z,14.30
2022-11-25T08:52:03.811Z,12.93
2022-11-25T08:54:31.225Z,14.18
2022-11-25T08:56:59.344Z,13.13
2022-11-25T08:59:26.936Z,12.90
2022-11-25T09:01:55.454Z,12.98
2022-11-25T09:04:23.113Z,13.23
2022-11-25T09:06:50.934Z,12.65
2022-11-25T09:09:18.299Z,12.37
2022-11-25T09:11:45.762Z,13.68
2022-11-25T09:14:13.819Z,11.98
2022-11-25T09:16:41.248Z,12.75
2022-11-25T09:19:08.936Z,13.23
2022-11-25T09:21:36.532Z,13.07
2022-11-25T09:24:04.024Z,12.95
2022-11-25T09:26:36.645Z,11.02
2022-11-25T09:29:04.302Z,12.63
2022-11-25T09:31:31.853Z,11.55
2022-11-25T09:33:59.406Z,12.23
2022-11-25T09:36:26.980Z,11.38
2022-11-25T09:38:54.363Z,10.43
2022-11-25T09:42:34.768Z,9.88
2022-11-25T09:45:40.948Z,36.40
2022-11-25T09:50:53.172Z,13.27
2022-11-25T09:53:23.229Z,11.65
2022-11-25T09:55:59.986Z,11.98
2022-11-25T09:59:03.201Z,11.55
2022-11-25T10:01:31.970Z,10.52
2022-11-25T10:04:06.093Z,10.85
2022-11-25T10:06:37.019Z,11.35
2022-11-25T10:09:12.611Z,11.55
2022-11-25T10:12:00.545Z,11.75
2022-11-25T10:14:39.215Z,10.40
2022-11-25T10:17:09.453Z,11.00
2022-11-25T10:19:41.733Z,10.60
2022-11-25T10:22:30.024Z,10.55
2022-11-25T10:25:00.894Z,9.63
2022-11-25T10:27:52.169Z,10.27
2022-11-25T10:30:22.639Z,10.52
2022-11-25T10:33:14.131Z,12.77
2022-11-25T10:35:49.708Z,11.27
2022-11-25T10:38:25.822Z,11.20
2022-11-25T10:40:54.902Z,10.25
2022-11-25T10:43:26.008Z,11.55
2022-11-25T10:46:16.727Z,11.45
2022-11-25T10:48:53.124Z,11.02
2022-11-25T10:51:35.851Z,10.25
2022-11-25T10:54:14.799Z,11.68
2022-11-25T10:57:08.477Z,12.63
2022-11-25T10:59:38.071Z,12.07
2022-11-25T11:02:21.555Z,11.27
2022-11-25T11:04:54.233Z,10.15
2022-11-25T11:07:22.528Z,11.50
2022-11-25T11:09:50.086Z,13.00
2022-11-25T11:12:22.200Z,12.55
2022-11-25T11:14:50.297Z,10.77
2022-11-25T11:17:36.803Z,11.57
2022-11-25T11:20:08.307Z,11.38
2022-11-25T11:22:37.184Z,11.82
2022-11-25T11:25:27.054Z,11.55
2022-11-25T11:27:54.744Z,11.77
2022-11-25T11:30:31.068Z,12.45
2022-11-25T11:33:07.318Z,14.45
2022-11-25T11:35:43.886Z,11.32
2022-11-25T11:38:17.100Z,10.88
2022-11-25T11:40:47.421Z,11.45
2022-11-25T11:43:39.644Z,11.65
2022-11-25T11:46:25.494Z,10.18
2022-11-25T11:49:05.030Z,10.85
2022-11-25T11:51:36.641Z,10.10
2022-11-25T11:54:12.859Z,10.55
2022-11-25T11:56:42.711Z,10.80
2022-11-25T11:59:46.246Z,10.27
2022-11-25T12:02:20.454Z,10.38
2022-11-25T12:04:56.966Z,10.55
2022-11-25T12:07:35.834Z,9.75
2022-11-25T12:10:38.847Z,10.88
2022-11-25T12:13:12.183Z,9.05
2022-11-25T12:15:39.646Z,9.52
2022-11-25T12:18:20.021Z,8.43
2022-11-25T12:21:01.944Z,9.35
2022-11-25T12:23:57.546Z,9.18
2022-11-25T12:26:40.368Z,10.27
2022-11-25T12:29:13.726Z,9.48
2022-11-25T12:32:10.061Z,9.45
2022-11-25T12:34:44.547Z,9.68
2022-11-25T12:39:50.146Z,9.13
2022-11-25T12:42:25.471Z,9.57
2022-11-25T12:44:58.257Z,9.30
2022-11-25T12:47:26.360Z,8.85
2022-11-25T12:49:55.170Z,9.60
2022-11-25T12:52:47.109Z,9.68
2022-11-25T12:55:25.523Z,8.95
2022-11-25T12:58:10.014Z,8.52
2022-11-25T13:01:03.593Z,7.28
2022-11-25T13:03:39.836Z,7.57
2022-11-25T13:06:33.728Z,8.50
2022-11-25T13:09:10.203Z,7.72
2022-11-25T13:11:59.126Z,7.43
2022-11-25T13:14:51.849Z,6.93
2022-11-25T13:17:20.471Z,7.05
2022-11-25T13:19:48.136Z,7.45
2022-11-25T13:22:18.342Z,6.65
2022-11-25T13:24:46.067Z,6.97
2022-11-25T13:27:35.981Z,7.03
2022-11-25T13:30:04.571Z,7.18
2022-11-25T13:32:35.127Z,6.95
2022-11-25T13:35:21.187Z,7.32
2022-11-25T13:37:49.670Z,9.13
2022-11-25T13:40:30.368Z,11.02
2022-11-25T13:43:00.429Z,11.63
2022-11-25T13:45:30.955Z,11.82
2022-11-25T13:48:27.927Z,13.65
2022-11-25T13:51:14.144Z,13.30
2022-11-25T13:53:41.839Z,12.45
2022-11-25T13:56:15.693Z,14.40
2022-11-25T13:59:12.024Z,12.68
2022-11-25T14:01:41.345Z,11.07
2022-11-25T14:04:09.502Z,12.15
2022-11-25T14:07:18.517Z,10.88
2022-11-25T14:09:57.610Z,12.05
2022-11-25T14:12:37.261Z,11.77
2022-11-25T14:15:13.853Z,12.18
2022-11-25T14:17:47.746Z,12.25
2022-11-25T14:20:49.243Z,12.32
2022-11-25T14:23:41.821Z,12.45
2022-11-25T14:26:41.750Z,12.60
2022-11-25T14:29:37.598Z,11.15
2022-11-25T14:32:25.781Z,20.65
2022-11-25T14:34:58.163Z,17.90
2022-11-25T14:37:44.431Z,16.12
2022-11-25T14:40:21.497Z,13.52
2022-11-25T14:42:52.645Z,13.05
2022-11-25T14:45:31.493Z,17.00
2022-11-25T14:48:12.956Z,16.42
2022-11-25T14:50:41.314Z,17.92
2022-11-25T14:53:10.179Z,17.62
2022-11-25T14:55:37.928Z,18.27
2022-11-25T14:58:05.416Z,18.42
2022-11-25T15:00:33.060Z,17.58
2022-11-25T15:03:03.228Z,19.23
2022-11-25T15:05:35.892Z,19.98
2022-11-25T15:08:06.106Z,20.92
2022-11-25T15:10:35.741Z,21.05
2022-11-25T15:13:11.732Z,18.55
2022-11-25T15:15:39.113Z,17.95
2022-11-25T15:18:07.407Z,16.00
2022-11-25T15:20:35.787Z,17.05
2022-11-25T15:23:03.344Z,17.45
2022-11-25T15:25:30.914Z,16.12
2022-11-25T15:27:58.533Z,20.33
2022-11-25T15:30:29.239Z,17.25
2022-11-25T15:32:57.266Z,18.02
2022-11-25T15:35:26.498Z,19.02
2022-11-25T15:37:56.743Z,27.00
2022-11-25T15:40:36.911Z,27.73
2022-11-25T15:43:06.894Z,28.15
2022-11-25T15:45:44.081Z,25.50
2022-11-25T15:48:33.605Z,35.90
2022-11-25T15:51:05.025Z,40.53
2022-11-25T15:53:36.975Z,34.47
2022-11-25T15:56:07.080Z,21.62
2022-11-25T15:58:34.679Z,18.42
2022-11-25T16:01:25.326Z,20.88
2022-11-25T16:03:52.953Z,26.92
2022-11-25T16:06:22.765Z,27.90
2022-11-25T16:08:56.008Z,26.35
2022-11-25T16:11:25.604Z,22.83
2022-11-25T16:13:53.308Z,22.17
2022-11-25T16:16:28.968Z,23.20
2022-11-25T16:19:02.705Z,31.77
2022-11-25T16:21:50.204Z,35.22
2022-11-25T16:24:29.589Z,66.53
2022-11-25T16:27:03.732Z,41.55
2022-11-25T16:29:37.834Z,53.45
2022-11-25T16:32:17.897Z,65.27
2022-11-25T16:34:46.143Z,69.68
2022-11-25T16:37:13.745Z,82.30
2022-11-25T16:39:41.068Z,60.15
2022-11-25T16:42:17.220Z,98.50
2022-11-25T16:44:48.675Z,116.57
2022-11-25T16:47:17.543Z,86.22
2022-11-25T16:49:45.027Z,83.10
2022-11-25T16:52:13.016Z,80.00
2022-11-25T16:54:41.848Z,51.58
2022-11-25T16:57:15.840Z,53.47
2022-11-25T16:59:44.491Z,54.28
2022-11-25T17:02:17.346Z,50.88
2022-11-25T17:04:46.305Z,50.33
2022-11-25T17:10:03.547Z,60.88
2022-11-25T17:12:33.894Z,66.37
2022-11-25T17:15:02.313Z,64.07
2022-11-25T17:17:30.903Z,55.63
2022-11-25T17:19:58.794Z,49.55
2022-11-25T17:22:27.692Z,43.47
2022-11-25T17:24:57.433Z,42.78
2022-11-25T17:27:30.415Z,39.80
2022-11-25T17:30:01.091Z,42.22
2022-11-25T17:32:29.167Z,42.13
2022-11-25T17:34:57.205Z,42.80
2022-11-25T17:37:26.129Z,41.92
2022-11-25T17:39:54.480Z,62.75
2022-11-25T17:42:28.032Z,54.28
2022-11-25T17:44:57.502Z,46.37
2022-11-25T17:47:25.228Z,48.87
2022-11-25T17:49:53.619Z,49.45
2022-11-25T17:52:21.457Z,55.97
2022-11-25T17:54:49.212Z,68.10
2022-11-25T17:57:20.405Z,59.58
2022-11-25T17:59:48.398Z,61.75
2022-11-25T18:02:21.773Z,68.95
2022-11-25T18:04:50.037Z,68.97
2022-11-25T18:07:18.187Z,63.72
2022-11-25T18:09:45.847Z,64.93
2022-11-25T18:12:17.591Z,63.80
2022-11-25T18:14:46.560Z,62.97
2022-11-25T18:17:17.658Z,63.67
2022-11-25T18:19:49.818Z,78.62
2022-11-25T18:22:21.096Z,73.75
2022-11-25T18:24:48.995Z,76.12
2022-11-25T18:27:23.317Z,77.37
2022-11-25T18:32:19.081Z,77.62
2022-11-25T18:34:47.056Z,77.43
2022-11-25T18:37:15.547Z,63.45
2022-11-25T18:39:43.368Z,55.50
2022-11-25T18:42:22.925Z,60.47
2022-11-25T18:44:51.093Z,89.97
2022-11-25T18:47:18.825Z,92.93
2022-11-25T18:49:51.025Z,79.20
2022-11-25T18:52:22.326Z,76.60
2022-11-25T18:54:50.372Z,77.68
2022-11-25T18:57:18.409Z,81.60
2022-11-25T18:59:52.748Z,71.47
2022-11-25T19:02:35.306Z,60.80
2022-11-25T19:05:06.553Z,62.95
2022-11-25T19:07:34.619Z,56.22
2022-11-25T19:10:02.320Z,53.75
2022-11-25T19:12:30.131Z,48.72
2022-11-25T19:14:57.970Z,49.58
2022-11-25T19:17:26.515Z,48.70
2022-11-25T19:19:57.453Z,48.55
2022-11-25T19:22:26.284Z,52.85
2022-11-25T19:24:57.007Z,52.17
2022-11-25T19:27:25.357Z,49.88
2022-11-25T19:29:54.297Z,52.17
2022-11-25T19:32:25.293Z,58.17
2022-11-25T19:35:21.249Z,62.47
2022-11-25T19:37:49.070Z,62.88
2022-11-25T19:40:18.485Z,62.25
2022-11-25T19:42:48.725Z,71.78
2022-11-25T19:45:20.746Z,73.62
2022-11-25T19:47:52.386Z,71.97
2022-11-25T19:50:27.692Z,82.80
2022-11-25T19:52:55.748Z,75.95
2022-11-25T19:55:26.798Z,78.82
2022-11-25T19:57:56.297Z,77.85
2022-11-25T20:00:24.732Z,81.97
2022-11-25T20:02:54.625Z,92.03
2022-11-25T20:05:27.045Z,85.60
2022-11-25T20:07:55.971Z,80.80
2022-11-25T20:10:26.952Z,84.90
2022-11-25T20:12:56.196Z,82.20
2022-11-25T20:15:24.693Z,77.10
2022-11-25T20:17:54.941Z,78.45
2022-11-25T20:20:30.706Z,76.32
2022-11-25T20:23:00.928Z,77.68
2022-11-25T20:25:29.651Z,75.50
2022-11-25T20:27:57.951Z,66.72
2022-11-25T20:30:28.852Z,71.95
2022-11-25T20:32:56.995Z,75.47
2022-11-25T20:35:25.638Z,68.72
2022-11-25T20:37:58.357Z,68.85
2022-11-25T20:40:43.014Z,65.72
2022-11-25T20:43:26.013Z,61.53
2022-11-25T20:45:54.604Z,68.55
2022-11-25T20:48:23.466Z,62.53
2022-11-25T20:50:54.153Z,61.58
2022-11-25T20:53:22.385Z,61.03
2022-11-25T20:55:50.900Z,60.15
2022-11-25T20:58:25.556Z,60.22
2022-11-25T21:00:57.604Z,56.75
2022-11-25T21:03:26.619Z,58.05
2022-11-25T21:05:56.054Z,56.40
2022-11-25T21:08:25.385Z,53.17
2022-11-25T21:10:55.689Z,55.95
2022-11-25T21:13:26.306Z,52.15
2022-11-25T21:15:54.043Z,54.33
2022-11-25T21:18:21.810Z,56.55
2022-11-25T21:20:51.360Z,60.72
2022-11-25T21:23:27.886Z,55.58
2022-11-25T21:26:04.936Z,62.65
2022-11-25T21:28:34.156Z,62.25
2022-11-25T21:31:04.810Z,62.20
2022-11-25T21:33:34.414Z,60.90
2022-11-25T21:36:02.263Z,62.28
2022-11-25T21:38:30.064Z,64.37
2022-11-25T21:40:58.380Z,66.07
2022-11-25T21:43:32.542Z,73.05
2022-11-25T21:46:05.366Z,70.45
2022-11-25T21:48:33.659Z,72.87
2022-11-25T21:51:00.963Z,71.32
2022-11-25T21:53:31.947Z,66.43
2022-11-25T21:56:02.272Z,74.32
2022-11-25T21:58:30.288Z,70.75
2022-11-25T22:00:59.855Z,77.93
2022-11-25T22:03:30.600Z,80.70
2022-11-25T22:05:57.904Z,77.25
2022-11-25T22:08:25.286Z,68.95
2022-11-25T22:10:54.754Z,64.47
2022-11-25T22:13:32.509Z,57.03
2022-11-25T22:16:00.203Z,49.20
2022-11-25T22:18:35.316Z,49.22
2022-11-25T22:21:03.461Z,54.88
2022-11-25T22:23:30.809Z,52.67
2022-11-25T22:25:58.507Z,58.00
2022-11-25T22:28:27.734Z,53.05
2022-11-25T22:30:57.429Z,51.67
2022-11-25T22:33:33.129Z,45.72
2022-11-25T22:36:01.399Z,44.05
2022-11-25T22:38:29.702Z,50.88
2022-11-25T22:41:01.666Z,46.42
2022-11-25T22:43:35.252Z,48.75
2022-11-25T22:46:04.058Z,44.92
2022-11-25T22:48:34.110Z,46.15
2022-11-25T22:51:03.690Z,46.08
2022-11-25T22:53:31.192Z,44.75
2022-11-25T22:55:58.820Z,44.33
2022-11-25T22:58:26.590Z,47.03
2022-11-25T23:00:55.274Z,45.58
2022-11-25T23:03:33.392Z,40.70
2022-11-25T23:06:03.225Z,42.97
2022-11-25T23:08:31.811Z,39.08
2022-11-25T23:10:59.226Z,38.65
2022-11-25T23:13:26.688Z,36.63
2022-11-25T23:15:56.551Z,34.95
2022-11-25T23:18:43.374Z,34.30
2022-11-25T23:21:22.956Z,35.45
2022-11-25T23:23:50.879Z,37.03
2022-11-25T23:29:03.695Z,35.55
2022-11-25T23:31:34.837Z,35.10
2022-11-25T23:34:04.072Z,35.42
2022-11-25T23:36:42.054Z,33.67
2022-11-25T23:39:19.305Z,32.60
2022-11-25T23:41:47.335Z,32.22
2022-11-25T23:44:30.751Z,28.92
2022-11-25T23:47:00.859Z,29.50
2022-11-25T23:49:36.865Z,24.77
2022-11-25T23:52:08.035Z,25.98
2022-11-25T23:54:42.795Z,22.75
2022-11-25T23:57:17.899Z,21.95
